createdAt,value
2018-06-22T00:00:15.649Z,72.95
2018-06-22T00:01:15.594Z,73.05
2018-06-22T00:02:15.556Z,72.18
2018-06-22T00:03:15.520Z,72.21
2018-06-22T00:04:15.498Z,71.79
2018-06-22T00:05:15.426Z,71.92
2018-06-22T00:06:15.388Z,72.08
2018-06-22T00:07:15.341Z,72.18
2018-06-22T00:08:15.345Z,72.85
2018-06-22T00:09:15.257Z,73.05
2018-06-22T00:10:15.208Z,73.33
2018-06-22T00:11:15.204Z,73.72
2018-06-22T00:12:15.114Z,73.72
2018-06-22T00:13:15.099Z,73.53
2018-06-22T00:14:15.018Z,74.10
2018-06-22T00:15:14.995Z,74.20
2018-06-22T00:16:14.924Z,74.40
2018-06-22T00:17:14.929Z,74.78
2018-06-22T00:18:14.847Z,74.58
2018-06-22T00:19:14.805Z,74.68
2018-06-22T00:20:14.759Z,74.30
2018-06-22T00:21:14.719Z,74.30
2018-06-22T00:22:14.668Z,74.40
2018-06-22T00:23:14.627Z,74.58
2018-06-22T00:24:14.563Z,74.30
2018-06-22T00:25:14.561Z,74.30
2018-06-22T00:26:14.492Z,74.49
2018-06-22T00:27:14.443Z,74.68
2018-06-22T00:28:14.401Z,74.58
2018-06-22T00:29:14.354Z,74.30
2018-06-22T00:30:14.328Z,74.58
2018-06-22T00:31:14.262Z,74.58
2018-06-22T00:32:14.233Z,74.68
2018-06-22T00:33:14.160Z,75.26
2018-06-22T00:34:14.123Z,74.88
2018-06-22T00:35:14.112Z,75.07
2018-06-22T00:36:14.052Z,74.88
2018-06-22T00:37:13.987Z,74.97
2018-06-22T00:38:13.961Z,75.36
2018-06-22T00:39:13.907Z,75.80
2018-06-22T00:40:13.880Z,75.80
2018-06-22T00:41:13.821Z,75.55
2018-06-22T00:42:13.758Z,76.03
2018-06-22T00:43:13.759Z,76.03
2018-06-22T00:44:13.684Z,75.32
2018-06-22T00:45:13.619Z,75.45
2018-06-22T00:46:13.582Z,75.45
2018-06-22T00:47:13.546Z,75.16
2018-06-22T00:48:13.509Z,75.55
2018-06-22T00:49:13.481Z,75.71
2018-06-22T00:50:13.403Z,76.18
2018-06-22T00:51:13.402Z,75.71
2018-06-22T00:52:13.335Z,76.09
2018-06-22T00:53:13.294Z,75.84
2018-06-22T00:54:13.241Z,76.09
2018-06-22T00:55:13.191Z,75.74
2018-06-22T00:56:13.155Z,75.71
2018-06-22T00:57:13.082Z,75.51
2018-06-22T00:58:13.051Z,75.42
2018-06-22T00:59:13.028Z,75.84
2018-06-22T01:00:12.965Z,75.90
2018-06-22T01:01:12.917Z,76.48
2018-06-22T01:02:12.896Z,76.28
2018-06-22T01:03:12.818Z,76.28
2018-06-22T01:04:12.794Z,76.51
2018-06-22T01:05:12.732Z,76.03
2018-06-22T01:06:12.705Z,76.32
2018-06-22T01:07:12.643Z,76.13
2018-06-22T01:08:12.633Z,75.74
2018-06-22T01:09:12.597Z,75.74
2018-06-22T01:10:12.524Z,75.74
2018-06-22T01:11:12.484Z,75.84
2018-06-22T01:12:12.444Z,75.93
2018-06-22T01:13:12.386Z,76.03
2018-06-22T01:14:12.358Z,75.90
2018-06-22T01:15:12.287Z,76.42
2018-06-22T01:16:12.229Z,75.74
2018-06-22T01:17:12.209Z,76.32
2018-06-22T01:18:12.139Z,76.03
2018-06-22T01:19:12.102Z,75.93
2018-06-22T01:20:12.080Z,76.32
2018-06-22T01:21:12.028Z,76.48
2018-06-22T01:22:12.020Z,77.09
2018-06-22T01:23:11.929Z,76.80
2018-06-22T01:24:11.885Z,77.34
2018-06-22T01:25:11.838Z,76.57
2018-06-22T01:26:11.808Z,76.86
2018-06-22T01:27:11.749Z,77.09
2018-06-22T01:28:11.700Z,76.80
2018-06-22T01:29:11.660Z,77.06
2018-06-22T01:30:11.602Z,77.06
2018-06-22T01:31:11.563Z,77.00
2018-06-22T01:32:11.537Z,76.90
2018-06-22T01:33:11.480Z,76.71
2018-06-22T01:34:11.435Z,76.51
2018-06-22T01:35:11.375Z,76.71
2018-06-22T01:36:11.344Z,77.00
2018-06-22T01:37:11.283Z,76.71
2018-06-22T01:38:11.239Z,76.80
2018-06-22T01:39:11.201Z,77.25
2018-06-22T01:40:11.171Z,77.44
2018-06-22T01:41:11.105Z,76.38
2018-06-22T01:42:11.084Z,76.38
2018-06-22T01:43:11.052Z,76.28
2018-06-22T01:44:10.981Z,76.28
2018-06-22T01:45:10.951Z,76.57
2018-06-22T01:46:10.882Z,76.28
2018-06-22T01:47:10.842Z,76.38
2018-06-22T01:48:10.796Z,77.15
2018-06-22T01:49:10.759Z,77.73
2018-06-22T01:50:10.726Z,77.34
2018-06-22T01:51:10.681Z,78.21
2018-06-22T01:52:10.613Z,78.21
2018-06-22T01:53:10.589Z,78.69
2018-06-22T01:54:10.563Z,78.65
2018-06-22T01:55:10.508Z,78.98
2018-06-22T01:56:10.461Z,79.23
2018-06-22T01:57:10.402Z,79.33
2018-06-22T01:58:10.341Z,79.61
2018-06-22T01:59:10.312Z,79.71
2018-06-22T02:00:10.251Z,79.81
2018-06-22T02:01:10.253Z,79.71
2018-06-22T02:02:10.176Z,79.81
2018-06-22T02:03:10.139Z,79.71
2018-06-22T02:04:10.121Z,79.61
2018-06-22T02:05:10.053Z,79.90
2018-06-22T02:06:10.007Z,79.61
2018-06-22T02:07:09.965Z,79.90
2018-06-22T02:08:09.904Z,80.00
2018-06-22T02:09:09.873Z,79.94
2018-06-22T02:10:09.815Z,79.52
2018-06-22T02:11:09.770Z,78.85
2018-06-22T02:12:09.737Z,79.17
2018-06-22T02:13:09.678Z,79.52
2018-06-22T02:14:09.661Z,79.81
2018-06-22T02:15:09.590Z,79.61
2018-06-22T02:16:09.544Z,79.61
2018-06-22T02:17:09.524Z,79.90
2018-06-22T02:18:09.440Z,79.71
2018-06-22T02:19:09.421Z,80.00
2018-06-22T02:20:09.359Z,80.10
2018-06-22T02:21:09.315Z,80.10
2018-06-22T02:22:09.279Z,80.10
2018-06-22T02:23:09.228Z,79.90
2018-06-22T02:24:09.176Z,80.00
2018-06-22T02:25:09.150Z,79.52
2018-06-22T02:26:09.084Z,79.90
2018-06-22T02:27:09.043Z,79.81
2018-06-22T02:28:09.002Z,79.85
2018-06-22T02:29:08.957Z,79.43
2018-06-22T02:30:08.950Z,79.61
2018-06-22T02:31:08.860Z,79.75
2018-06-22T02:32:08.808Z,79.13
2018-06-22T02:33:08.781Z,78.56
2018-06-22T02:34:08.743Z,78.65
2018-06-22T02:35:08.683Z,78.46
2018-06-22T02:36:08.649Z,79.03
2018-06-22T02:37:08.625Z,78.75
2018-06-22T02:38:08.590Z,79.13
2018-06-22T02:39:08.506Z,79.03
2018-06-22T02:40:08.457Z,79.03
2018-06-22T02:41:08.441Z,78.56
2018-06-22T02:42:08.386Z,78.85
2018-06-22T02:43:08.332Z,79.13
2018-06-22T02:44:08.294Z,79.81
2018-06-22T02:45:08.275Z,79.81
2018-06-22T02:46:08.205Z,80.10
2018-06-22T02:47:08.165Z,80.29
2018-06-22T02:48:08.126Z,80.29
2018-06-22T02:49:08.080Z,79.90
2018-06-22T02:50:08.036Z,80.48
2018-06-22T02:51:07.966Z,80.58
2018-06-22T02:52:07.918Z,80.58
2018-06-22T02:53:07.858Z,80.58
2018-06-22T02:54:07.836Z,80.58
2018-06-22T02:55:07.785Z,80.77
2018-06-22T02:56:07.746Z,80.68
2018-06-22T02:57:07.708Z,80.38
2018-06-22T02:58:07.670Z,80.96
2018-06-22T02:59:07.593Z,80.96
2018-06-22T03:00:07.545Z,81.35
2018-06-22T03:01:07.505Z,81.40
2018-06-22T03:02:07.468Z,81.70
2018-06-22T03:03:07.421Z,82.08
2018-06-22T03:04:10.680Z,82.08
2018-06-22T03:05:07.345Z,81.88
2018-06-22T03:06:07.296Z,81.98
2018-06-22T03:07:07.302Z,81.40
2018-06-22T03:08:07.210Z,81.30
2018-06-22T03:09:07.159Z,81.60
2018-06-22T03:10:07.100Z,81.45
2018-06-22T03:11:07.073Z,81.16
2018-06-22T03:12:07.017Z,81.06
2018-06-22T03:13:06.984Z,81.45
2018-06-22T03:14:06.936Z,80.96
2018-06-22T03:15:06.905Z,80.77
2018-06-22T03:16:06.819Z,81.06
2018-06-22T03:17:06.776Z,80.58
2018-06-22T03:18:06.731Z,81.06
2018-06-22T03:19:06.709Z,81.45
2018-06-22T03:20:06.661Z,81.16
2018-06-22T03:21:06.615Z,81.16
2018-06-22T03:22:06.560Z,81.12
2018-06-22T03:23:06.529Z,80.87
2018-06-22T03:24:06.458Z,81.35
2018-06-22T03:25:06.423Z,81.54
2018-06-22T03:26:06.384Z,81.40
2018-06-22T03:27:06.336Z,81.60
2018-06-22T03:28:06.288Z,81.70
2018-06-22T03:29:06.260Z,81.60
2018-06-22T03:30:06.204Z,81.50
2018-06-22T03:31:06.156Z,81.40
2018-06-22T03:32:06.149Z,80.83
2018-06-22T03:33:06.071Z,80.83
2018-06-22T03:34:06.020Z,81.40
2018-06-22T03:35:05.991Z,81.30
2018-06-22T03:36:05.942Z,80.83
2018-06-22T03:37:05.870Z,81.21
2018-06-22T03:38:05.847Z,82.56
2018-06-22T03:39:05.780Z,82.37
2018-06-22T03:40:05.767Z,82.46
2018-06-22T03:41:05.703Z,82.56
2018-06-22T03:42:06.177Z,81.79
2018-06-22T03:43:05.618Z,80.69
2018-06-22T03:44:05.592Z,81.07
2018-06-22T03:45:05.532Z,81.30
2018-06-22T03:46:05.477Z,82.14
2018-06-22T03:47:05.431Z,82.08
2018-06-22T03:48:05.382Z,82.52
2018-06-22T03:49:05.346Z,82.42
2018-06-22T03:50:05.330Z,82.37
2018-06-22T03:51:05.239Z,82.17
2018-06-22T03:52:05.187Z,82.08
2018-06-22T03:53:05.143Z,82.08
2018-06-22T03:54:05.118Z,82.08
2018-06-22T03:55:05.069Z,82.61
2018-06-22T03:56:05.057Z,82.81
2018-06-22T03:57:04.960Z,82.32
2018-06-22T03:58:04.941Z,82.04
2018-06-22T03:59:04.867Z,81.79
2018-06-22T04:00:04.855Z,81.75
2018-06-22T04:01:04.780Z,81.27
2018-06-22T04:02:04.759Z,82.23
2018-06-22T04:03:04.714Z,82.14
2018-06-22T04:04:04.665Z,82.81
2018-06-22T04:05:04.610Z,83.29
2018-06-22T04:06:04.589Z,83.77
2018-06-22T04:07:04.512Z,83.77
2018-06-22T04:08:04.472Z,83.86
2018-06-22T04:09:04.518Z,83.09
2018-06-22T04:10:04.412Z,82.04
2018-06-22T04:11:04.339Z,82.81
2018-06-22T04:12:04.293Z,83.00
2018-06-22T04:13:04.273Z,82.23
2018-06-22T04:14:04.215Z,81.94
2018-06-22T04:15:04.176Z,82.14
2018-06-22T04:16:04.103Z,81.84
2018-06-22T04:17:04.060Z,83.06
2018-06-22T04:18:04.007Z,83.83
2018-06-22T04:19:03.972Z,83.34
2018-06-22T04:20:03.966Z,83.63
2018-06-22T04:21:03.915Z,83.63
2018-06-22T04:22:03.826Z,83.73
2018-06-22T04:23:03.797Z,83.53
2018-06-22T04:24:03.756Z,84.21
2018-06-22T04:25:03.727Z,84.30
2018-06-22T04:26:03.669Z,84.69
2018-06-22T04:27:03.612Z,84.59
2018-06-22T04:28:03.562Z,85.17
2018-06-22T04:29:03.510Z,84.69
2018-06-22T04:30:03.471Z,84.50
2018-06-22T04:31:03.440Z,83.83
2018-06-22T04:32:03.380Z,84.59
2018-06-22T04:33:03.327Z,84.50
2018-06-22T04:34:03.285Z,84.11
2018-06-22T04:35:03.270Z,84.50
2018-06-22T04:36:03.190Z,84.21
2018-06-22T04:37:03.152Z,84.21
2018-06-22T04:38:03.149Z,84.30
2018-06-22T04:39:03.068Z,84.01
2018-06-22T04:40:03.007Z,83.73
2018-06-22T04:41:02.989Z,83.53
2018-06-22T04:42:02.928Z,83.44
2018-06-22T04:43:02.859Z,83.63
2018-06-22T04:44:02.834Z,84.78
2018-06-22T04:45:02.797Z,84.69
2018-06-22T04:46:02.728Z,84.30
2018-06-22T04:47:02.694Z,84.01
2018-06-22T04:48:02.661Z,83.83
2018-06-22T04:49:02.599Z,83.53
2018-06-22T04:50:02.563Z,83.58
2018-06-22T04:51:02.536Z,83.15
2018-06-22T04:52:02.494Z,83.06
2018-06-22T04:53:02.435Z,83.63
2018-06-22T04:54:02.391Z,83.44
2018-06-22T04:55:02.336Z,83.63
2018-06-22T04:56:02.817Z,83.53
2018-06-22T04:57:02.255Z,83.48
2018-06-22T04:58:02.192Z,83.63
2018-06-22T04:59:02.164Z,83.83
2018-06-22T05:00:02.112Z,83.53
2018-06-22T05:01:02.063Z,83.73
2018-06-22T05:02:02.016Z,83.34
2018-06-22T05:03:01.955Z,83.44
2018-06-22T05:04:01.903Z,83.92
2018-06-22T05:05:01.865Z,84.50
2018-06-22T05:06:01.821Z,84.01
2018-06-22T05:07:01.805Z,84.50
2018-06-22T05:08:01.737Z,84.50
2018-06-22T05:09:01.703Z,84.59
2018-06-22T05:10:01.634Z,84.21
2018-06-22T05:11:01.591Z,83.92
2018-06-22T05:12:01.562Z,84.69
2018-06-22T05:13:01.497Z,84.69
2018-06-22T05:14:01.472Z,84.59
2018-06-22T05:15:01.414Z,84.30
2018-06-22T05:16:01.392Z,85.27
2018-06-22T05:17:01.333Z,85.03
2018-06-22T05:18:01.277Z,85.55
2018-06-22T05:19:01.246Z,84.74
2018-06-22T05:20:01.187Z,85.71
2018-06-22T05:21:01.123Z,86.38
2018-06-22T05:22:01.091Z,86.18
2018-06-22T05:23:01.046Z,85.84
2018-06-22T05:24:01.002Z,85.71
2018-06-22T05:25:00.963Z,85.55
2018-06-22T05:26:00.895Z,84.98
2018-06-22T05:27:00.870Z,85.07
2018-06-22T05:28:00.802Z,84.50
2018-06-22T05:29:00.764Z,84.78
2018-06-22T05:30:00.741Z,84.88
2018-06-22T05:31:00.667Z,84.78
2018-06-22T05:32:00.664Z,84.88
2018-06-22T05:33:00.613Z,84.78
2018-06-22T05:34:00.572Z,84.59
2018-06-22T05:35:00.496Z,84.98
2018-06-22T05:36:00.463Z,84.30
2018-06-22T05:37:00.402Z,85.22
2018-06-22T05:38:00.365Z,85.36
2018-06-22T05:39:00.304Z,85.07
2018-06-22T05:40:00.262Z,84.59
2018-06-22T05:41:00.247Z,84.50
2018-06-22T05:42:00.168Z,84.88
2018-06-22T05:43:00.154Z,84.69
2018-06-22T05:44:00.099Z,84.50
2018-06-22T05:45:00.059Z,85.03
2018-06-22T05:46:00.012Z,85.22
2018-06-22T05:46:59.947Z,85.32
2018-06-22T05:47:59.885Z,85.13
2018-06-22T05:48:59.865Z,85.03
2018-06-22T05:49:59.793Z,85.17
2018-06-22T05:50:59.891Z,84.69
2018-06-22T05:51:59.715Z,84.78
2018-06-22T05:52:59.695Z,84.98
2018-06-22T05:53:59.607Z,84.50
2018-06-22T05:54:59.626Z,84.50
2018-06-22T05:55:59.519Z,84.01
2018-06-22T05:56:59.484Z,84.59
2018-06-22T05:57:59.465Z,84.40
2018-06-22T05:58:59.421Z,84.01
2018-06-22T05:59:59.362Z,84.88
2018-06-22T06:00:59.303Z,84.50
2018-06-22T06:01:59.252Z,84.30
2018-06-22T06:02:59.220Z,84.11
2018-06-22T06:03:59.174Z,84.69
2018-06-22T06:04:59.119Z,84.30
2018-06-22T06:05:59.060Z,84.11
2018-06-22T06:06:59.035Z,84.69
2018-06-22T06:07:58.981Z,83.83
2018-06-22T06:08:58.935Z,84.40
2018-06-22T06:09:58.915Z,84.26
2018-06-22T06:10:59.393Z,84.84
2018-06-22T06:11:58.806Z,86.18
2018-06-22T06:12:58.748Z,86.09
2018-06-22T06:13:58.704Z,85.99
2018-06-22T06:14:58.651Z,85.89
2018-06-22T06:15:58.602Z,85.71
2018-06-22T06:16:58.566Z,85.03
2018-06-22T06:17:58.523Z,85.22
2018-06-22T06:18:58.481Z,84.55
2018-06-22T06:19:58.444Z,84.94
2018-06-22T06:20:58.396Z,85.22
2018-06-22T06:21:58.356Z,85.71
2018-06-22T06:22:58.291Z,85.13
2018-06-22T06:23:58.262Z,85.32
2018-06-22T06:24:58.190Z,85.22
2018-06-22T06:25:58.182Z,84.84
2018-06-22T06:26:58.103Z,85.61
2018-06-22T06:27:58.071Z,85.41
2018-06-22T06:28:58.017Z,85.61
2018-06-22T06:29:57.958Z,85.61
2018-06-22T06:30:57.935Z,84.74
2018-06-22T06:31:57.906Z,85.22
2018-06-22T06:32:57.833Z,85.03
2018-06-22T06:33:57.818Z,85.51
2018-06-22T06:34:57.741Z,85.41
2018-06-22T06:35:57.692Z,85.32
2018-06-22T06:36:57.643Z,85.89
2018-06-22T06:37:57.610Z,85.89
2018-06-22T06:38:57.552Z,85.22
2018-06-22T06:39:57.527Z,84.64
2018-06-22T06:40:57.464Z,85.32
2018-06-22T06:41:57.478Z,85.51
2018-06-22T06:42:57.389Z,85.51
2018-06-22T06:43:57.341Z,85.80
2018-06-22T06:44:57.311Z,85.80
2018-06-22T06:45:57.223Z,86.09
2018-06-22T06:46:57.203Z,85.61
2018-06-22T06:47:57.142Z,86.09
2018-06-22T06:48:57.110Z,86.52
2018-06-22T06:49:57.052Z,86.62
2018-06-22T06:50:56.989Z,86.66
2018-06-22T06:51:56.958Z,86.47
2018-06-22T06:52:56.915Z,86.38
2018-06-22T06:53:56.880Z,86.18
2018-06-22T06:54:56.837Z,85.99
2018-06-22T06:55:56.762Z,86.09
2018-06-22T06:56:56.727Z,85.71
2018-06-22T06:57:56.685Z,86.09
2018-06-22T06:58:56.625Z,85.80
2018-06-22T06:59:56.599Z,86.14
2018-06-22T07:00:56.543Z,86.33
2018-06-22T07:01:56.517Z,86.62
2018-06-22T07:02:56.479Z,86.72
2018-06-22T07:03:56.435Z,86.57
2018-06-22T07:04:56.343Z,86.57
2018-06-22T07:05:56.316Z,86.18
2018-06-22T07:06:56.281Z,86.09
2018-06-22T07:07:56.210Z,85.89
2018-06-22T07:08:56.189Z,85.89
2018-06-22T07:09:56.124Z,85.66
2018-06-22T07:10:56.092Z,86.28
2018-06-22T07:11:56.044Z,86.38
2018-06-22T07:12:56.006Z,86.18
2018-06-22T07:13:55.933Z,86.18
2018-06-22T07:14:55.901Z,86.52
2018-06-22T07:15:55.853Z,86.52
2018-06-22T07:16:55.825Z,86.81
2018-06-22T07:17:55.796Z,86.18
2018-06-22T07:18:55.705Z,86.28
2018-06-22T07:19:55.696Z,85.89
2018-06-22T07:20:55.623Z,86.09
2018-06-22T07:21:55.595Z,86.33
2018-06-22T07:22:56.086Z,86.62
2018-06-22T07:23:55.473Z,86.05
2018-06-22T07:24:55.969Z,86.24
2018-06-22T07:25:55.395Z,86.33
2018-06-22T07:26:55.356Z,86.91
2018-06-22T07:27:55.325Z,87.29
2018-06-22T07:28:55.256Z,87.19
2018-06-22T07:29:55.194Z,87.10
2018-06-22T07:30:55.162Z,87.49
2018-06-22T07:31:55.129Z,87.01
2018-06-22T07:32:55.079Z,87.01
2018-06-22T07:33:55.010Z,87.49
2018-06-22T07:34:54.997Z,87.10
2018-06-22T07:35:54.962Z,87.10
2018-06-22T07:36:54.880Z,87.96
2018-06-22T07:37:54.853Z,87.49
2018-06-22T07:38:54.803Z,87.25
2018-06-22T07:39:54.733Z,88.59
2018-06-22T07:40:54.709Z,88.25
2018-06-22T07:41:54.664Z,88.02
2018-06-22T07:42:54.628Z,88.21
2018-06-22T07:43:54.637Z,88.49
2018-06-22T07:44:54.513Z,88.54
2018-06-22T07:45:54.472Z,87.77
2018-06-22T07:46:54.467Z,87.73
2018-06-22T07:47:54.384Z,87.96
2018-06-22T07:48:54.342Z,87.39
2018-06-22T07:49:54.315Z,87.77
2018-06-22T07:50:54.229Z,87.29
2018-06-22T07:51:54.202Z,87.49
2018-06-22T07:52:54.146Z,87.19
2018-06-22T07:53:54.088Z,86.52
2018-06-22T07:54:54.042Z,87.10
2018-06-22T07:55:54.004Z,87.87
2018-06-22T07:56:53.955Z,87.87
2018-06-22T07:57:53.931Z,87.39
2018-06-22T07:58:53.906Z,87.87
2018-06-22T07:59:53.828Z,87.01
2018-06-22T08:00:53.795Z,87.19
2018-06-22T08:01:53.733Z,87.29
2018-06-22T08:02:53.673Z,87.92
2018-06-22T08:03:53.655Z,88.21
2018-06-22T08:04:53.607Z,88.40
2018-06-22T08:05:53.564Z,88.40
2018-06-22T08:06:53.501Z,87.87
2018-06-22T08:07:53.447Z,87.87
2018-06-22T08:08:53.401Z,87.87
2018-06-22T08:09:53.386Z,87.96
2018-06-22T08:10:53.318Z,88.02
2018-06-22T08:11:53.289Z,88.40
2018-06-22T08:12:53.242Z,88.31
2018-06-22T08:13:53.172Z,88.83
2018-06-22T08:14:53.117Z,87.68
2018-06-22T08:15:53.085Z,87.96
2018-06-22T08:16:53.062Z,87.87
2018-06-22T08:17:53.007Z,87.25
2018-06-22T08:18:52.945Z,87.44
2018-06-22T08:19:52.886Z,87.92
2018-06-22T08:20:52.878Z,88.02
2018-06-22T08:21:52.804Z,88.02
2018-06-22T08:22:52.783Z,88.69
2018-06-22T08:23:52.718Z,88.11
2018-06-22T08:24:52.682Z,88.21
2018-06-22T08:25:52.647Z,88.21
2018-06-22T08:26:52.598Z,88.31
2018-06-22T08:27:52.549Z,88.49
2018-06-22T08:28:52.497Z,88.11
2018-06-22T08:29:52.424Z,88.11
2018-06-22T08:30:52.391Z,87.92
2018-06-22T08:31:52.343Z,87.92
2018-06-22T08:32:52.283Z,87.49
2018-06-22T08:33:52.801Z,87.63
2018-06-22T08:34:52.201Z,87.68
2018-06-22T08:35:52.151Z,87.54
2018-06-22T08:36:52.118Z,87.05
2018-06-22T08:37:52.069Z,87.73
2018-06-22T08:38:52.040Z,88.11
2018-06-22T08:39:51.987Z,88.49
2018-06-22T08:40:51.940Z,88.31
2018-06-22T08:41:52.017Z,88.49
2018-06-22T08:42:51.848Z,88.88
2018-06-22T08:43:51.773Z,88.40
2018-06-22T08:44:51.753Z,88.49
2018-06-22T08:45:51.682Z,88.98
2018-06-22T08:46:51.635Z,89.26
2018-06-22T08:47:51.612Z,88.69
2018-06-22T08:48:51.603Z,88.40
2018-06-22T08:49:51.495Z,88.49
2018-06-22T08:50:51.471Z,88.69
2018-06-22T08:51:51.408Z,89.07
2018-06-22T08:52:51.376Z,88.69
2018-06-22T08:53:51.317Z,89.55
2018-06-22T08:54:51.261Z,89.36
2018-06-22T08:55:51.227Z,88.21
2018-06-22T08:56:51.198Z,88.40
2018-06-22T08:57:51.139Z,88.40
2018-06-22T08:58:51.078Z,88.31
2018-06-22T08:59:51.075Z,88.49
2018-06-22T09:00:51.001Z,88.69
2018-06-22T09:01:50.952Z,89.65
2018-06-22T09:02:50.919Z,89.46
2018-06-22T09:03:51.406Z,89.36
2018-06-22T09:04:50.829Z,89.46
2018-06-22T09:05:50.775Z,89.36
2018-06-22T09:06:50.733Z,89.55
2018-06-22T09:07:50.688Z,88.79
2018-06-22T09:08:50.630Z,88.79
2018-06-22T09:09:50.590Z,88.79
2018-06-22T09:10:50.566Z,88.79
2018-06-22T09:11:50.489Z,88.88
2018-06-22T09:12:50.454Z,88.79
2018-06-22T09:13:50.400Z,89.07
2018-06-22T09:14:50.361Z,88.21
2018-06-22T09:15:50.314Z,88.69
2018-06-22T09:16:50.255Z,88.65
2018-06-22T09:17:50.208Z,89.41
2018-06-22T09:18:50.184Z,90.03
2018-06-22T09:19:50.119Z,89.94
2018-06-22T09:20:50.097Z,89.46
2018-06-22T09:21:50.036Z,89.17
2018-06-22T09:22:49.979Z,89.26
2018-06-22T09:23:49.925Z,89.17
2018-06-22T09:24:49.872Z,88.88
2018-06-22T09:25:49.852Z,88.88
2018-06-22T09:26:49.805Z,89.17
2018-06-22T09:27:49.778Z,89.17
2018-06-22T09:28:49.715Z,89.17
2018-06-22T09:29:49.665Z,88.69
2018-06-22T09:30:49.617Z,89.46
2018-06-22T09:31:49.553Z,89.55
2018-06-22T09:32:49.517Z,89.41
2018-06-22T09:33:49.473Z,89.46
2018-06-22T09:34:49.417Z,89.89
2018-06-22T09:35:49.383Z,89.79
2018-06-22T09:36:49.371Z,89.89
2018-06-22T09:37:49.817Z,90.85
2018-06-22T09:38:49.228Z,90.47
2018-06-22T09:39:49.177Z,90.37
2018-06-22T09:40:49.129Z,90.95
2018-06-22T09:41:49.084Z,90.56
2018-06-22T09:42:49.152Z,91.14
2018-06-22T09:43:49.004Z,91.24
2018-06-22T09:44:48.963Z,91.62
2018-06-22T09:45:48.900Z,91.14
2018-06-22T09:46:48.870Z,92.00
2018-06-22T09:47:48.815Z,91.33
2018-06-22T09:48:48.774Z,91.33
2018-06-22T09:49:48.712Z,91.52
2018-06-22T09:50:48.706Z,92.05
2018-06-22T09:51:48.631Z,92.29
2018-06-22T09:52:48.588Z,91.91
2018-06-22T09:53:48.529Z,91.96
2018-06-22T09:54:48.494Z,91.86
2018-06-22T09:55:48.437Z,91.91
2018-06-22T09:56:48.404Z,91.33
2018-06-22T09:57:48.363Z,91.52
2018-06-22T09:58:48.289Z,91.52
2018-06-22T09:59:48.271Z,91.52
2018-06-22T10:00:48.223Z,91.42
2018-06-22T10:01:48.709Z,91.72
2018-06-22T10:02:48.127Z,91.72
2018-06-22T10:03:48.083Z,91.48
2018-06-22T10:04:48.087Z,91.91
2018-06-22T10:05:48.048Z,92.00
2018-06-22T10:06:47.945Z,91.52
2018-06-22T10:07:47.883Z,91.72
2018-06-22T10:08:47.827Z,91.72
2018-06-22T10:09:47.792Z,90.95
2018-06-22T10:10:47.780Z,91.14
2018-06-22T10:11:47.712Z,91.72
2018-06-22T10:12:47.671Z,91.05
2018-06-22T10:13:47.608Z,90.95
2018-06-22T10:14:48.095Z,90.18
2018-06-22T10:15:47.500Z,90.32
2018-06-22T10:16:47.474Z,89.94
2018-06-22T10:17:47.422Z,90.61
2018-06-22T10:18:47.389Z,89.26
2018-06-22T10:19:47.345Z,89.17
2018-06-22T10:20:47.271Z,89.46
2018-06-22T10:21:47.223Z,90.32
2018-06-22T10:22:47.184Z,90.13
2018-06-22T10:23:47.188Z,89.89
2018-06-22T10:24:47.085Z,90.52
2018-06-22T10:25:47.066Z,90.42
2018-06-22T10:26:47.006Z,90.52
2018-06-22T10:27:46.960Z,90.52
2018-06-22T10:28:46.931Z,89.79
2018-06-22T10:29:46.904Z,90.13
2018-06-22T10:30:46.840Z,90.42
2018-06-22T10:31:46.776Z,90.13
2018-06-22T10:32:46.729Z,89.07
2018-06-22T10:33:46.710Z,89.22
2018-06-22T10:34:46.628Z,89.02
2018-06-22T10:35:46.577Z,88.06
2018-06-22T10:36:46.575Z,88.83
2018-06-22T10:37:46.490Z,88.16
2018-06-22T10:38:46.459Z,88.45
2018-06-22T10:39:46.414Z,88.35
2018-06-22T10:40:46.396Z,88.16
2018-06-22T10:41:46.362Z,88.06
2018-06-22T10:42:46.277Z,87.87
2018-06-22T10:43:46.227Z,87.68
2018-06-22T10:44:46.182Z,87.68
2018-06-22T10:45:46.707Z,87.68
2018-06-22T10:46:46.099Z,87.10
2018-06-22T10:47:46.066Z,87.87
2018-06-22T10:48:46.036Z,87.68
2018-06-22T10:49:45.964Z,88.54
2018-06-22T10:50:45.918Z,88.83
2018-06-22T10:51:45.873Z,89.50
2018-06-22T10:52:45.814Z,88.78
2018-06-22T10:53:45.771Z,87.15
2018-06-22T10:54:46.249Z,86.47
2018-06-22T10:55:45.702Z,86.38
2018-06-22T10:56:45.656Z,86.09
2018-06-22T10:57:45.613Z,86.09
2018-06-22T10:58:45.552Z,85.07
2018-06-22T10:59:45.547Z,84.40
2018-06-22T11:00:45.473Z,83.92
2018-06-22T11:01:45.433Z,84.30
2018-06-22T11:02:45.430Z,84.78
2018-06-22T11:03:45.392Z,84.50
2018-06-22T11:04:45.283Z,84.69
2018-06-22T11:05:45.266Z,84.50
2018-06-22T11:06:45.192Z,84.88
2018-06-22T11:07:45.167Z,85.07
2018-06-22T11:08:45.120Z,84.88
2018-06-22T11:09:45.085Z,84.21
2018-06-22T11:10:45.030Z,84.50
2018-06-22T11:11:44.985Z,84.21
2018-06-22T11:12:44.941Z,83.53
2018-06-22T11:13:44.914Z,84.40
2018-06-22T11:14:45.378Z,83.44
2018-06-22T11:15:44.819Z,83.58
2018-06-22T11:16:45.363Z,84.59
2018-06-22T11:17:44.727Z,84.98
2018-06-22T11:18:44.660Z,84.98
2018-06-22T11:19:44.616Z,85.55
2018-06-22T11:20:44.602Z,86.13
2018-06-22T11:21:44.567Z,86.90
2018-06-22T11:22:44.509Z,86.71
2018-06-22T11:23:44.476Z,86.80
2018-06-22T11:24:44.440Z,86.32
2018-06-22T11:25:44.342Z,86.13
2018-06-22T11:26:44.318Z,85.94
2018-06-22T11:27:44.300Z,85.75
2018-06-22T11:28:44.240Z,85.94
2018-06-22T11:29:44.198Z,86.52
2018-06-22T11:30:44.710Z,86.32
2018-06-22T11:31:44.080Z,85.94
2018-06-22T11:32:44.040Z,85.17
2018-06-22T11:33:44.084Z,85.84
2018-06-22T11:34:43.976Z,85.41
2018-06-22T11:35:43.987Z,85.07
2018-06-22T11:36:43.880Z,84.36
2018-06-22T11:37:43.827Z,83.97
2018-06-22T11:38:43.774Z,84.50
2018-06-22T11:39:43.728Z,84.94
2018-06-22T11:40:43.691Z,85.22
2018-06-22T11:41:43.648Z,84.36
2018-06-22T11:42:43.589Z,84.40
2018-06-22T11:43:43.543Z,84.98
2018-06-22T11:44:43.498Z,85.17
2018-06-22T11:45:43.472Z,85.17
2018-06-22T11:46:43.428Z,85.27
2018-06-22T11:47:43.372Z,84.59
2018-06-22T11:48:43.317Z,84.11
2018-06-22T11:49:43.294Z,84.59
2018-06-22T11:50:43.247Z,84.30
2018-06-22T11:51:43.197Z,84.30
2018-06-22T11:52:43.154Z,84.40
2018-06-22T11:53:43.126Z,84.50
2018-06-22T11:54:43.079Z,84.01
2018-06-22T11:55:43.017Z,83.73
2018-06-22T11:56:42.987Z,83.34
2018-06-22T11:57:42.925Z,83.34
2018-06-22T11:58:42.900Z,83.58
2018-06-22T11:59:42.833Z,82.90
2018-06-22T12:00:42.782Z,82.81
2018-06-22T12:01:42.795Z,82.52
2018-06-22T12:02:42.692Z,81.94
2018-06-22T12:03:43.217Z,81.94
2018-06-22T12:04:42.616Z,82.23
2018-06-22T12:05:42.557Z,81.75
2018-06-22T12:06:42.552Z,81.94
2018-06-22T12:07:42.478Z,82.04
2018-06-22T12:08:42.441Z,81.56
2018-06-22T12:09:42.405Z,81.56
2018-06-22T12:10:42.320Z,81.37
2018-06-22T12:11:42.281Z,80.98
2018-06-22T12:12:42.244Z,81.17
2018-06-22T12:13:42.214Z,80.54
2018-06-22T12:14:42.159Z,79.73
2018-06-22T12:15:42.108Z,80.21
2018-06-22T12:16:42.075Z,80.35
2018-06-22T12:17:42.044Z,79.86
2018-06-22T12:18:41.984Z,79.28
2018-06-22T12:19:41.956Z,78.71
2018-06-22T12:20:41.914Z,79.00
2018-06-22T12:21:41.850Z,78.81
2018-06-22T12:22:41.795Z,78.52
2018-06-22T12:23:42.287Z,77.65
2018-06-22T12:24:41.706Z,77.65
2018-06-22T12:25:41.664Z,77.08
2018-06-22T12:26:41.612Z,76.44
2018-06-22T12:27:41.640Z,75.76
2018-06-22T12:28:41.527Z,75.67
2018-06-22T12:29:41.484Z,75.48
2018-06-22T12:30:41.427Z,75.28
2018-06-22T12:31:41.408Z,75.76
2018-06-22T12:32:41.343Z,75.57
2018-06-22T12:33:41.324Z,74.41
2018-06-22T12:34:41.262Z,75.09
2018-06-22T12:35:41.208Z,75.38
2018-06-22T12:36:41.176Z,74.36
2018-06-22T12:37:41.127Z,74.16
2018-06-22T12:38:41.088Z,74.07
2018-06-22T12:39:41.051Z,74.07
2018-06-22T12:40:41.024Z,74.16
2018-06-22T12:41:40.984Z,73.01
2018-06-22T12:42:40.899Z,72.05
2018-06-22T12:43:40.889Z,72.63
2018-06-22T12:44:40.833Z,73.01
2018-06-22T12:45:40.797Z,73.39
2018-06-22T12:46:40.744Z,73.30
2018-06-22T12:47:40.702Z,72.72
2018-06-22T12:48:40.654Z,71.79
2018-06-22T12:49:40.632Z,71.02
2018-06-22T12:50:41.090Z,72.27
2018-06-22T12:51:40.503Z,71.95